Latest Weather Observations for Rockhampton

IDQ60801

Issued at 7:36 pm EST Thursday 2 April 2015 (issued every 30 minutes, with the page automatically refreshed every 10 minutes)

About weather observations | Map of weather stations | Latest weather observations for QLD | Other Formats
Station Details ID: 039083 Name: ROCKHAMPTON AERO Lat: -23.38 Lon: 150.48 Height: 10.4 m
Data from the previous 72 hours. | See also: Recent months at Rockhampton
Date/Time
EST
Temp
°C
App
Temp
°C
Dew
Point
Rel
Hum
%
Delta-T
°C
Wind Press
QNH
hPa
Press
MSL
hPa
Rain
since 9 am
mm
Dir
 
Spd
km/h
Gust
km/h
Spd
kts
Gust
kts
02/07:00pm 24.3 26.6 21.4 84 1.9 SE 11 17 6 9 1013.3 - 0.0
02/06:30pm 24.3 25.7 20.3 78 2.6 SE 13 19 7 10 1013.2 - 0.0
02/06:00pm 24.6 24.2 19.3 72 3.4 ESE 20 30 11 16 1012.8 1012.7 0.0
02/05:30pm 26.4 26.2 19.8 67 4.3 ESE 20 30 11 16 1012.3 - 0.0
02/05:00pm 27.7 27.6 19.9 62 5.1 ESE 20 30 11 16 1011.9 - 0.0
02/04:30pm 28.7 28.3 18.9 55 6.3 E 19 30 10 16 1011.5 - 0.0
02/04:00pm 29.5 29.0 18.6 52 7.0 E 19 26 10 14 1011.3 - 0.0
02/03:30pm 29.5 29.1 19.0 53 6.8 E 19 26 10 14 1011.2 - 0.0
02/03:00pm 30.6 31.4 18.1 47 8.0 ESE 11 28 6 15 1011.2 1011.1 0.0
02/02:30pm 30.3 29.7 17.6 46 8.1 E 17 24 9 13 1011.5 - 0.0
02/02:00pm 30.0 29.5 16.8 45 8.3 ESE 15 22 8 12 1011.6 - 0.0
02/01:30pm 30.6 30.0 16.6 43 8.8 ESE 15 20 8 11 1012.1 - 0.0
02/01:00pm 29.9 30.3 17.3 46 8.0 E 11 20 6 11 1012.6 - 0.0
02/12:30pm 28.7 28.1 18.4 53 6.6 SE 19 26 10 14 1013.2 - 0.0
02/12:00pm 29.0 28.4 17.6 50 7.2 SE 17 26 9 14 1013.8 1013.7 0.0
02/11:30am 28.3 28.5 17.7 52 6.7 SE 13 20 7 11 1014.3 - 0.0
02/11:00am 27.0 27.2 18.5 59 5.4 SE 15 22 8 12 1014.8 - 0.0
02/10:30am 27.5 28.3 19.1 60 5.4 SE 13 22 7 12 1015.3 - 0.0
02/10:00am 27.1 28.4 19.2 62 5.1 SE 11 20 6 11 1015.6 - 0.0
02/09:30am 25.7 25.9 19.3 67 4.1 SE 17 26 9 14 1015.6 - 0.0
02/09:00am 25.0 25.0 19.0 69 3.8 SE 17 26 9 14 1015.6 1015.5 0.0
02/08:00am 23.2 24.7 18.8 76 2.8 ESE 9 15 5 8 1015.5 - 0.0
02/07:30am 21.8 23.6 18.8 83 1.9 SSE 7 11 4 6 1015.3 - 0.0
02/06:30am 19.4 20.9 18.1 92 0.8 SSW 7 9 4 5 1014.8 - 0.0
02/05:30am 19.5 22.3 18.0 91 0.9 CALM 0 0 0 0 1014.3 - 0.0
02/05:00am 19.4 21.5 18.1 92 0.8 SSE 4 7 2 4 1014.1 - 0.0
02/04:30am 19.8 22.7 18.3 91 0.9 CALM 0 0 0 0 1014.4 - 0.0
02/04:00am 19.7 21.3 18.2 91 0.9 SW 7 9 4 5 1014.2 - 0.0
02/03:30am 20.3 23.1 18.0 87 1.4 CALM 0 6 0 3 1014.2 - 0.0
02/03:00am 20.4 22.0 18.3 88 1.3 SSE 7 11 4 6 1014.2 1014.1 0.0
02/02:30am 20.2 21.4 18.3 89 1.2 SE 9 13 5 7 1014.3 - 0.0
02/02:00am 20.3 21.6 18.5 89 1.1 SE 9 13 5 7 1014.4 - 0.0
02/01:30am 20.4 22.1 18.6 89 1.1 SE 7 9 4 5 1014.9 - 0.0
02/01:00am 20.8 22.2 18.6 87 1.4 SE 9 15 5 8 1015.0 - 0.0
02/12:30am 20.9 21.9 18.7 87 1.4 SE 11 17 6 9 1015.5 - 0.0
02/12:00am 21.1 21.7 18.7 86 1.5 SSE 13 20 7 11 1015.7 1015.6 0.0
 
Date/Time
EST
Temp
°C
App
Temp
°C
Dew
Point
Rel
Hum
%
Delta-T
°C
Wind Press
QNH
hPa
Press
MSL
hPa
Rain
since 9 am
mm
Dir
 
Spd
km/h
Gust
km/h
Spd
kts
Gust
kts
01/11:30pm 21.1 22.1 18.7 86 1.5 SE 11 15 6 8 1015.9 - 0.0
01/11:00pm 21.6 22.2 18.6 83 1.9 SE 13 19 7 10 1016.2 - 0.0
01/10:30pm 21.9 22.3 18.9 83 1.9 SE 15 22 8 12 1016.5 - 0.0
01/10:00pm 22.2 22.2 18.9 81 2.1 SE 17 24 9 13 1016.5 - 0.0
01/09:30pm 22.6 23.6 19.5 82 2.0 SE 13 22 7 12 1016.7 - 0.0
01/09:00pm 22.7 23.7 19.4 81 2.1 ESE 13 22 7 12 1016.8 1016.7 0.0
01/08:30pm 23.3 24.2 20.0 82 2.1 ESE 15 28 8 15 1016.6 - 0.0
01/08:00pm 23.7 24.2 20.0 80 2.4 E 17 26 9 14 1016.3 - 0.0
01/07:30pm 23.9 24.5 18.7 72 3.3 E 13 24 7 13 1015.9 - 0.0
01/07:00pm 23.6 25.6 19.9 80 2.4 ESE 9 13 5 7 1015.5 - 0.0
01/06:30pm 23.4 25.8 20.1 82 2.1 ESE 7 9 4 5 1015.4 - 0.0
01/06:00pm 23.4 25.3 19.7 80 2.4 ESE 9 15 5 8 1015.1 1015.0 0.0
01/05:30pm 23.8 25.1 19.4 76 2.8 ESE 11 17 6 9 1014.8 - 0.0
01/05:00pm 23.9 25.2 19.2 75 3.0 SE 11 15 6 8 1014.7 - 0.0
01/04:30pm 24.2 25.0 19.9 77 2.8 S 15 19 8 10 1014.4 - 0.0
01/04:00pm 24.1 24.4 19.6 76 2.9 SSE 17 24 9 13 1014.7 - 0.0
01/03:30pm 25.1 24.6 18.6 67 4.1 SE 19 30 10 16 1014.3 - 0.0
01/03:00pm 25.8 24.0 17.9 61 5.0 E 24 35 13 19 1014.2 1014.1 0.0
01/02:30pm 28.0 27.8 18.6 56 6.0 E 17 28 9 15 1014.3 - 0.0
01/02:00pm 27.0 26.3 18.7 60 5.3 E 20 32 11 17 1014.5 - 0.0
01/01:30pm 26.5 26.0 19.2 64 4.7 E 20 28 11 15 1014.9 - 0.0
01/01:00pm 26.5 25.1 18.8 62 4.9 ESE 24 33 13 18 1015.2 - 0.0
01/12:30pm 26.7 24.7 18.2 59 5.4 ESE 26 37 14 20 1015.7 - 0.0
01/12:00pm 26.6 26.4 19.8 66 4.4 E 20 30 11 16 1016.1 1016.0 0.0
01/11:30am 27.0 26.7 19.6 64 4.8 ESE 20 28 11 15 1016.5 - 0.0
01/11:00am 24.9 24.1 19.3 71 3.6 ESE 22 30 12 16 1017.2 - 0.0
01/10:30am 26.0 25.6 20.2 70 3.8 ESE 22 30 12 16 1017.7 - 0.0
01/10:00am 23.8 23.4 20.1 80 2.4 ESE 22 39 12 21 1018.0 - 0.0
01/09:30am 25.0 25.3 19.7 72 3.4 SE 17 28 9 15 1017.9 - 0.0
01/09:00am 22.7 24.2 19.7 83 1.9 SE 11 15 6 8 1018.3 1018.2 3.6
01/08:30am 22.5 23.6 19.7 84 1.8 SE 13 20 7 11 1018.3 - 3.6
01/08:00am 22.5 24.3 19.5 83 1.9 SE 9 15 5 8 1017.9 - 3.6
01/07:30am 21.8 24.2 19.6 87 1.4 SE 6 11 3 6 1017.4 - 3.6
01/07:00am 21.3 24.4 19.6 90 1.1 ESE 2 7 1 4 1017.1 - 3.6
01/06:30am 21.1 22.7 19.2 89 1.2 ESE 9 15 5 8 1016.8 - 3.6
01/06:00am 21.1 23.7 19.2 89 1.2 ESE 4 7 2 4 1016.8 1016.7 3.6
01/05:30am 21.4 22.0 18.7 84 1.7 SE 13 19 7 10 1016.7 - 3.6
01/05:00am 21.2 22.9 18.6 85 1.6 ENE 7 9 4 5 1016.7 - 3.6
01/04:30am 20.8 22.8 18.7 88 1.3 E 6 9 3 5 1016.1 - 3.6
01/04:00am 20.9 22.8 19.0 89 1.2 SE 7 9 4 5 1015.8 - 3.6
01/03:30am 21.1 22.6 18.9 87 1.4 SE 9 13 5 7 1015.9 - 3.6
01/03:00am 20.9 22.4 18.8 88 1.3 ESE 9 11 5 6 1015.8 1015.7 3.6
01/02:30am 21.2 22.3 18.8 86 1.5 SE 11 17 6 9 1016.6 - 3.6
01/02:00am 21.4 22.2 19.0 86 1.5 SE 13 20 7 11 1017.0 - 3.6
01/01:30am 21.2 23.0 19.6 90 1.0 SSE 9 15 5 8 1017.8 - 3.6
01/01:00am 21.2 23.2 19.9 92 0.8 SSW 9 11 5 6 1017.8 - 3.6
01/12:30am 21.2 22.7 19.8 92 0.9 SSE 11 15 6 8 1018.0 - 3.6
01/12:00am 21.3 22.4 19.6 90 1.1 SE 13 20 7 11 1018.0 1017.9 3.2
 
Date/Time
EST
Temp
°C
App
Temp
°C
Dew
Point
Rel
Hum
%
Delta-T
°C
Wind Press
QNH
hPa
Press
MSL
hPa
Rain
since 9 am
mm
Dir
 
Spd
km/h
Gust
km/h
Spd
kts
Gust
kts
31/11:30pm 21.7 22.7 19.5 87 1.4 SE 13 22 7 12 1018.0 - 2.2
31/11:00pm 21.9 22.5 19.4 86 1.6 SE 15 24 8 13 1018.0 - 1.8
31/10:30pm 22.4 23.4 19.4 83 1.9 SE 13 19 7 10 1018.7 - 1.6
31/10:00pm 22.4 23.5 19.6 84 1.8 SE 13 20 7 11 1019.0 - 1.6
31/09:30pm 22.6 22.7 19.1 80 2.2 ESE 17 24 9 13 1018.6 - 1.6
31/09:00pm 22.5 24.0 19.8 85 1.7 SSE 11 15 6 8 1019.1 1019.0 1.6
31/08:30pm 22.8 24.0 19.8 83 1.9 S 13 19 7 10 1019.2 - 1.6
31/08:00pm 22.6 23.3 19.6 83 1.9 SE 15 20 8 11 1018.3 - 1.6
31/07:30pm 22.7 23.4 19.6 82 2.0 ESE 15 22 8 12 1018.2 - 1.4
31/07:00pm 23.1 23.9 19.8 82 2.1 ESE 15 22 8 12 1018.0 - 1.0
31/06:30pm 23.8 25.3 19.8 78 2.6 ESE 11 15 6 8 1017.9 - 0.6
31/06:00pm 25.0 28.4 20.1 74 3.2 NNE 2 7 1 4 1017.4 1017.3 0.2
31/05:30pm 25.6 27.9 19.4 68 4.0 NE 6 13 3 7 1016.9 - 0.0
31/05:00pm 26.0 28.1 19.3 66 4.3 ENE 7 15 4 8 1016.3 - 0.0
31/04:30pm 27.6 27.3 17.4 53 6.4 E 15 22 8 12 1015.9 - 0.0
31/04:00pm 27.9 28.2 17.8 54 6.4 E 13 20 7 11 1016.1 - 0.0
31/03:30pm 28.6 27.8 18.1 53 6.7 E 19 26 10 14 1015.9 - 0.0
31/03:00pm 29.4 28.9 17.9 50 7.3 ESE 17 26 9 14 1015.8 1015.7 0.0
31/02:30pm 30.6 29.7 18.1 47 8.0 SE 20 30 11 16 1016.1 - 0.0
31/02:00pm 30.1 29.2 18.2 49 7.6 ESE 20 28 11 15 1016.6 - 0.0
31/01:30pm 30.3 29.6 18.7 50 7.5 ESE 20 30 11 16 1016.9 - 0.0
31/01:00pm 29.6 28.0 19.3 54 6.7 ESE 26 35 14 19 1017.3 - 0.0
31/12:30pm 29.0 28.6 19.3 55 6.3 SE 20 33 11 18 1017.8 - 0.0
31/12:00pm 28.7 27.4 19.1 56 6.2 SE 24 39 13 21 1018.2 1018.1 0.0
31/11:30am 28.2 27.5 19.4 59 5.7 E 22 32 12 17 1018.9 - 0.0
31/11:00am 27.5 26.8 19.5 61 5.2 ESE 22 32 12 17 1019.3 - 0.0
31/10:30am 28.1 27.7 19.3 58 5.7 ESE 20 28 11 15 1019.5 - 0.0
31/10:00am 27.6 26.9 19.6 61 5.2 SE 22 30 12 16 1019.8 - 0.0
31/09:30am 27.3 26.6 19.4 62 5.1 SE 22 33 12 18 1019.9 - 0.0
31/09:00am 25.9 25.1 19.2 66 4.3 SE 22 35 12 19 1020.0 1019.9 0.0
31/08:30am 24.4 23.8 18.9 71 3.5 SE 20 32 11 17 1019.9 - 0.0
31/08:00am 23.5 23.3 18.6 74 3.1 SE 17 28 9 15 1020.0 - 0.0
31/07:30am 22.7 22.5 18.4 76 2.7 ESE 17 24 9 13 1019.5 - 0.0
31/07:00am 21.7 21.4 18.2 80 2.2 ESE 17 24 9 13 1019.0 - 0.0
31/06:30am 20.7 20.3 18.1 85 1.6 ESE 17 24 9 13 1018.6 - 0.0
31/06:00am 20.6 20.2 18.0 85 1.6 ESE 17 26 9 14 1018.4 1018.3 0.0
31/05:30am 20.9 20.4 17.8 82 1.9 ESE 17 22 9 12 1018.3 - 0.0
31/05:00am 20.5 20.7 17.7 84 1.7 ESE 13 17 7 9 1018.3 - 0.0
31/04:30am 20.8 21.0 17.7 82 1.9 ESE 13 17 7 9 1018.1 - 0.0
31/04:00am 21.0 21.6 17.8 82 2.0 ESE 11 15 6 8 1017.9 - 0.0
31/03:30am 21.1 21.8 18.0 82 1.9 ESE 11 17 6 9 1017.9 - 0.0
31/03:00am 21.0 21.3 17.9 82 1.9 ESE 13 17 7 9 1018.1 1018.0 0.0
31/02:30am 21.2 22.4 18.3 83 1.8 E 9 13 5 7 1018.4 - 0.0
31/02:00am 21.3 22.2 18.4 83 1.8 ESE 11 15 6 8 1018.6 - 0.0
31/01:30am 21.6 22.0 18.1 80 2.2 ESE 13 17 7 9 1019.1 - 0.0
31/01:00am 21.6 22.4 18.1 80 2.2 ESE 11 15 6 8 1019.5 - 0.0
31/12:30am 21.6 22.4 18.1 80 2.2 ESE 11 13 6 7 1019.9 - 0.0
31/12:00am 21.5 22.2 17.9 80 2.2 ESE 11 15 6 8 1019.9 1019.8 0.0
 
Date/Time
EST
Temp
°C
App
Temp
°C
Dew
Point
Rel
Hum
%
Delta-T
°C
Wind Press
QNH
hPa
Press
MSL
hPa
Rain
since 9 am
mm
Dir
 
Spd
km/h
Gust
km/h
Spd
kts
Gust
kts
30/11:30pm 22.2 23.4 18.2 78 2.5 SE 9 13 5 7 1020.2 - 0.0
30/11:00pm 22.2 23.8 18.2 78 2.5 SE 7 9 4 5 1020.4 - 0.0
30/10:30pm 22.5 24.1 18.3 77 2.6 SE 7 11 4 6 1020.5 - 0.0
30/10:00pm 23.2 24.9 18.4 74 3.0 SE 7 13 4 7 1020.7 - 0.0
30/09:30pm 23.4 24.6 18.3 73 3.2 SE 9 13 5 7 1020.8 - 0.0
30/09:00pm 23.8 24.1 18.0 70 3.6 ESE 13 19 7 10 1020.6 1020.5 0.0
30/08:30pm 24.2 24.2 18.1 68 3.8 ESE 15 19 8 10 1020.4 - 0.0
30/08:00pm 24.8 25.2 18.1 66 4.2 ESE 13 19 7 10 1020.1 - 0.0

Other Formats:

Comma delimited format used in spreadsheet applications
http://www.bom.gov.au/fwo/IDQ60801/IDQ60801.94374.axf

JavaScript Object Notation format (JSON) in row-major order
http://www.bom.gov.au/fwo/IDQ60801/IDQ60801.94374.json